Latest Weather Observations for Holsworthy

IDN60901

Issued at 1:51 pm EST Friday 29 July 2016 (issued every 10 minutes, with the page automatically refreshed every 10 minutes)

About weather observations | Map of Sydney area stations | Latest observations for Sydney area | Other Formats
Station Details ID: 066161 Name: HOLSWORTHY AERODROME AWS Lat: -33.99 Lon: 150.95 Height: 68.16 m
Data from the previous 72 hours. | See also: Recent months at Holsworthy
Date/Time
EST
Temp
°C
App
Temp
°C
Dew
Point
°C
Rel
Hum
%
Delta-T
°C
Wind Press
QNH
hPa
Press
MSL
hPa
Rain since
9am
mm
Dir  Spd
km/h
Gust
km/h
Spd
kts
Gust
kts
29/01:30pm 17.1 13.3 3.8 41 6.2 WNW 13 20 7 11 1018.5 1018.5 0.0
29/01:00pm 16.6 12.6 3.0 40 6.2 WNW 13 19 7 10 1019.1 1019.1 0.0
29/12:30pm 16.0 11.9 2.1 39 6.2 W 13 20 7 11 1019.7 1019.8 0.0
29/12:00pm 14.9 11.0 3.4 46 5.2 W 13 24 7 13 1020.5 1020.6 0.0
29/11:30am 13.9 9.9 3.1 48 4.8 WNW 13 19 7 10 1021.1 1021.2 0.0
29/11:00am 12.9 8.7 3.6 53 4.2 W 15 20 8 11 1021.5 1021.6 0.0
29/10:30am 12.1 8.3 3.9 57 3.7 W 13 22 7 12 1022.1 1022.2 0.0
29/10:00am 11.3 7.3 3.1 57 3.6 W 13 20 7 11 1022.4 1022.5 0.0
29/09:30am 10.6 6.7 3.6 62 3.1 WNW 13 20 7 11 1022.5 1022.6 0.0
29/09:00am 9.7 5.9 3.7 66 2.6 W 13 20 7 11 1022.8 1022.9 0.0
29/08:30am 8.5 4.3 3.8 72 2.0 WSW 15 22 8 12 1022.9 1023.0 0.0
29/08:00am 6.6 3.1 3.4 80 1.3 WSW 11 15 6 8 1022.8 1022.9 0.0
29/07:30am 4.0 0.7 2.4 89 0.6 WSW 9 13 5 7 1022.9 1023.0 0.0
29/07:00am 2.8 -0.1 1.5 91 0.5 W 6 9 3 5 1022.9 1023.0 0.0
29/06:30am 3.0 -0.5 1.5 90 0.6 W 9 11 5 6 1022.6 1022.7 0.0
29/06:00am 3.8 0.5 2.2 89 0.6 WSW 9 11 5 6 1022.3 1022.4 0.0
29/05:30am 4.6 1.3 2.3 85 0.9 WSW 9 15 5 8 1022.0 1022.1 0.0
29/05:00am 4.4 1.1 2.4 87 0.8 WSW 9 15 5 8 1022.0 1022.1 0.0
29/04:30am 4.2 0.5 2.6 89 0.6 WSW 11 17 6 9 1021.9 1022.0 0.0
29/04:00am 4.1 0.7 2.1 87 0.8 WSW 9 11 5 6 1022.0 1022.1 0.0
29/03:30am 4.4 1.4 2.1 85 0.9 WSW 7 9 4 5 1022.1 1022.2 0.0
29/03:00am 4.9 1.9 2.1 82 1.1 W 7 9 4 5 1022.2 1022.3 0.0
29/02:30am 5.6 2.3 2.4 80 1.3 W 9 11 5 6 1022.5 1022.6 0.0
29/02:00am 6.2 2.9 2.5 77 1.5 WNW 9 15 5 8 1022.4 1022.5 0.0
29/01:30am 7.4 4.1 2.5 71 2.0 W 9 13 5 7 1022.1 1022.2 0.0
29/01:00am 7.9 3.9 2.8 70 2.1 SW 13 17 7 9 1022.4 1022.5 0.0
29/12:30am 8.0 3.7 3.1 71 2.1 WSW 15 22 8 12 1022.5 1022.6 0.0
29/12:00am 7.6 3.7 3.3 74 1.8 WSW 13 19 7 10 1022.5 1022.6 0.0
 
Date/Time
EST
Temp
°C
App
Temp
°C
Dew
Point
°C
Rel
Hum
%
Delta-T
°C
Wind Press
QNH
hPa
Press
MSL
hPa
Rain since
9am
mm
Dir  Spd
km/h
Gust
km/h
Spd
kts
Gust
kts
28/11:30pm 6.9 3.3 3.2 77 1.6 WSW 11 15 6 8 1022.6 1022.7 0.0
28/11:00pm 6.4 3.2 2.9 78 1.5 WSW 9 11 5 6 1022.8 1022.9 0.0
28/10:30pm 6.6 3.4 2.9 77 1.5 W 9 11 5 6 1022.8 1022.9 0.0
28/10:00pm 7.0 4.1 2.7 74 1.8 WSW 7 9 4 5 1022.9 1023.0 0.0
28/09:30pm 7.8 4.6 2.9 71 2.1 W 9 11 5 6 1022.8 1022.9 0.0
28/09:00pm 8.2 5.5 2.7 68 2.3 WSW 6 7 3 4 1022.9 1023.0 0.0
28/08:30pm 9.5 6.3 2.8 63 2.9 WSW 9 13 5 7 1022.8 1022.9 0.0
28/08:00pm 11.0 7.1 3.3 59 3.4 W 13 22 7 12 1022.8 1022.9 0.0
28/07:30pm 11.1 6.8 3.2 58 3.5 WSW 15 20 8 11 1022.7 1022.8 0.0
28/07:00pm 12.1 6.8 3.1 54 4.0 WSW 20 32 11 17 1022.4 1022.5 0.0
28/06:30pm 12.5 6.8 2.9 52 4.2 WSW 22 39 12 21 1022.1 1022.2 0.0
28/06:00pm 12.6 7.4 3.3 53 4.1 WSW 20 32 11 17 1021.7 1021.8 0.0
28/05:30pm 13.3 8.7 3.7 52 4.3 WSW 17 28 9 15 1021.3 1021.4 0.0
28/05:00pm 14.5 9.9 3.9 49 4.8 WSW 17 32 9 17 1021.1 1021.2 0.0
28/04:30pm 16.1 11.1 4.5 46 5.5 WSW 20 32 11 17 1020.8 1020.9 0.0
28/04:00pm 17.4 12.7 5.0 44 5.9 WSW 19 30 10 16 1020.6 1020.7 0.0
28/03:30pm 18.6 14.6 4.8 40 6.7 WSW 15 22 8 12 1020.5 1020.6 0.0
28/03:00pm 18.8 15.1 4.6 39 6.8 W 13 26 7 14 1020.4 1020.5 0.0
28/02:30pm 18.5 14.1 4.7 40 6.6 WNW 17 28 9 15 1020.4 1020.5 0.0
28/02:00pm 18.2 15.0 5.1 42 6.3 NW 11 15 6 8 1020.8 1020.9 0.0
28/01:30pm 17.7 14.8 4.6 42 6.3 NW 9 17 5 9 1021.1 1021.2 0.0
28/01:00pm 16.9 13.3 2.9 39 6.4 NW 11 17 6 9 1021.6 1021.7 0.0
28/12:30pm 17.0 14.0 4.0 42 6.1 WNW 9 15 5 8 1022.0 1022.1 0.0
28/12:00pm 15.9 12.1 4.0 45 5.5 WNW 13 19 7 10 1022.5 1022.6 0.0
28/11:30am 15.5 11.8 4.6 48 5.1 WNW 13 20 7 11 1023.2 1023.3 0.0
28/11:00am 14.6 10.9 4.3 50 4.7 W 13 19 7 10 1023.7 1023.8 0.0
28/10:30am 13.8 9.8 4.7 54 4.2 WSW 15 20 8 11 1024.0 1024.1 0.0
28/10:00am 12.9 7.9 3.8 54 4.1 W 19 24 10 13 1024.3 1024.4 0.0
28/09:30am 12.4 8.0 4.6 59 3.6 WSW 17 22 9 12 1024.2 1024.3 0.0
28/09:00am 11.3 7.5 4.1 61 3.2 WSW 13 24 7 13 1024.0 1024.1 0.0
28/08:30am 9.4 6.1 4.6 72 2.1 WSW 11 19 6 10 1024.1 1024.2 0.0
28/08:00am 6.6 3.6 3.9 83 1.1 SW 9 15 5 8 1023.9 1024.0 0.0
28/07:30am 4.7 1.6 3.5 92 0.5 WSW 9 13 5 7 1023.8 1023.9 0.0
28/07:00am 4.2 2.3 2.7 90 0.6 E 2 7 1 4 1023.3 1023.4 0.0
28/06:30am 4.3 1.5 3.1 92 0.5 SW 7 9 4 5 1022.7 1022.8 0.0
28/06:00am 4.2 1.4 2.9 91 0.5 SW 7 9 4 5 1022.3 1022.4 0.0
28/05:30am 4.8 2.0 3.3 90 0.6 S 7 11 4 6 1022.2 1022.3 0.0
28/05:00am 5.0 1.8 3.2 88 0.7 WSW 9 11 5 6 1021.7 1021.8 0.0
28/04:30am 6.0 4.6 3.7 85 1.0 CALM 0 6 0 3 1021.2 1021.3 0.0
28/04:00am 6.0 2.8 3.3 83 1.1 W 9 11 5 6 1020.8 1020.9 0.0
28/03:30am 7.1 4.1 3.9 80 1.4 SW 9 13 5 7 1020.9 1021.0 0.0
28/03:00am 6.8 3.4 4.1 83 1.2 WSW 11 15 6 8 1020.7 1020.8 0.0
28/02:30am 6.5 5.0 3.1 79 1.4 CALM 0 0 0 0 1020.9 1021.0 0.0
28/02:00am 7.0 3.9 3.8 80 1.4 WSW 9 11 5 6 1021.2 1021.3 0.0
28/01:30am 7.1 4.1 3.9 80 1.4 WSW 9 13 5 7 1021.4 1021.5 0.0
28/01:00am 7.4 4.4 4.0 79 1.5 WSW 9 13 5 7 1021.2 1021.3 0.0
28/12:30am 7.0 4.2 3.1 76 1.6 WSW 7 9 4 5 1021.3 1021.4 0.0
28/12:00am 9.1 6.6 3.9 70 2.3 WSW 6 9 3 5 1021.0 1021.1 0.0
 
Date/Time
EST
Temp
°C
App
Temp
°C
Dew
Point
°C
Rel
Hum
%
Delta-T
°C
Wind Press
QNH
hPa
Press
MSL
hPa
Rain since
9am
mm
Dir  Spd
km/h
Gust
km/h
Spd
kts
Gust
kts
27/11:30pm 9.4 6.4 4.0 69 2.4 WSW 9 15 5 8 1020.6 1020.7 0.0
27/11:00pm 10.1 7.4 3.8 65 2.8 W 7 13 4 7 1020.0 1020.1 0.0
27/10:30pm 10.9 7.1 3.9 62 3.1 W 13 20 7 11 1020.1 1020.2 0.0
27/10:00pm 11.4 7.3 4.2 61 3.2 W 15 26 8 14 1020.1 1020.2 0.0
27/09:30pm 11.0 6.8 4.0 62 3.1 W 15 20 8 11 1019.9 1020.0 0.0
27/09:00pm 11.0 7.6 4.2 63 3.0 W 11 15 6 8 1019.8 1019.9 0.0
27/08:30pm 11.8 8.1 4.3 60 3.4 WNW 13 20 7 11 1019.2 1019.2 0.0
27/08:00pm 12.1 8.4 4.3 59 3.5 W 13 20 7 11 1018.8 1018.8 0.0
27/07:30pm 12.3 8.2 4.3 58 3.6 W 15 24 8 13 1018.5 1018.5 0.0
27/07:00pm 12.5 8.8 4.2 57 3.8 W 13 20 7 11 1018.0 1018.0 0.0
27/06:30pm 12.9 9.5 4.1 55 4.0 W 11 17 6 9 1017.4 1017.4 0.0
27/06:00pm 13.5 9.4 4.1 53 4.3 W 15 24 8 13 1016.6 1016.6 0.0
27/05:30pm 13.9 9.0 3.9 51 4.6 W 19 30 10 16 1015.9 1015.9 0.0
27/05:00pm 14.7 8.7 3.5 47 5.1 W 24 41 13 22 1015.5 1015.5 0.0
27/04:43pm 15.3 8.6 3.5 45 5.4 W 28 50 15 27 1015.3 1015.3 0.0
27/04:30pm 15.6 10.1 4.0 46 5.4 W 22 39 12 21 1015.1 1015.1 0.0
27/04:00pm 16.3 11.8 4.0 44 5.7 W 17 33 9 18 1014.6 1014.6 0.0
27/03:30pm 16.7 11.0 4.7 45 5.7 WSW 24 35 13 19 1014.2 1014.3 0.0
27/03:00pm 16.6 10.3 3.7 42 6.0 W 26 41 14 22 1013.6 1013.7 0.0
27/02:30pm 17.0 10.4 4.0 42 6.1 W 28 46 15 25 1013.3 1013.4 0.0
27/02:00pm 17.0 10.3 3.7 41 6.2 W 28 46 15 25 1013.0 1013.1 0.0
27/01:36pm 17.0 10.2 3.0 39 6.4 W 28 48 15 26 1012.7 1012.8 0.0
27/01:30pm 16.9 10.9 3.2 40 6.3 W 24 44 13 24 1012.6 1012.7 0.0
27/01:00pm 16.8 9.5 2.4 38 6.5 W 30 50 16 27 1012.6 1012.7 0.0
27/12:56pm 17.1 10.3 3.1 39 6.4 W 28 50 15 27 1012.5 1012.6 0.0
27/12:48pm 16.3 9.5 3.0 41 6.1 W 28 44 15 24 1012.5 1012.6 0.0
27/12:30pm 16.6 11.7 4.0 43 5.9 WNW 19 33 10 18 1012.5 1012.6 0.0
27/12:00pm 16.0 10.7 3.1 42 5.9 W 20 30 11 16 1012.5 1012.6 0.0
27/11:30am 16.8 11.4 4.5 44 5.8 WNW 22 39 12 21 1012.3 1012.4 0.0
27/11:00am 16.2 10.8 4.6 46 5.5 W 22 39 12 21 1012.3 1012.4 0.0
27/10:30am 16.6 11.5 6.1 50 5.1 WNW 22 35 12 19 1012.5 1012.6 0.0
27/10:00am 15.4 10.2 5.3 51 4.8 WNW 22 39 12 21 1012.5 1012.6 0.0
27/09:30am 14.7 10.5 5.5 54 4.4 NW 17 24 9 13 1012.0 1012.1 0.0
27/09:00am 13.8 9.9 5.4 57 4.0 NW 15 22 8 12 1012.0 1012.1 0.0
27/08:30am 12.8 9.2 4.8 58 3.7 NNW 13 20 7 11 1012.0 1012.1 0.0
27/08:00am 12.2 8.5 4.7 60 3.4 WNW 13 17 7 9 1012.2 1012.3 0.0
27/07:30am 10.9 8.3 4.1 63 3.0 NW 7 13 4 7 1011.9 1012.0 0.0
27/07:00am 10.2 7.1 3.7 64 2.9 NNW 9 13 5 7 1011.8 1011.9 0.0
27/06:30am 10.6 6.5 4.1 64 2.9 N 15 22 8 12 1011.7 1011.8 0.0
27/06:00am 9.4 6.3 3.8 68 2.5 NNW 9 15 5 8 1011.7 1011.8 0.0
27/05:30am 9.5 6.5 4.1 69 2.4 NW 9 13 5 7 1011.5 1011.6 0.0
27/05:00am 9.3 6.3 3.9 69 2.4 NW 9 15 5 8 1011.8 1011.9 0.0
27/04:30am 9.0 5.5 3.4 68 2.4 NW 11 19 6 10 1011.8 1011.9 0.0
27/04:00am 7.8 4.7 3.5 74 1.8 NW 9 13 5 7 1012.0 1012.1 0.0
27/03:30am 8.1 5.3 3.4 72 2.0 NNW 7 9 4 5 1011.9 1012.0 0.0
27/03:00am 7.2 5.8 3.4 77 1.6 CALM 0 0 0 0 1012.3 1012.4 0.0
27/02:30am 6.4 3.3 3.6 82 1.2 NNE 9 11 5 6 1012.6 1012.7 0.0
27/02:00am 7.0 4.8 3.6 79 1.4 S 4 7 2 4 1013.4 1013.5 0.0
27/01:30am 7.8 6.4 3.5 74 1.8 CALM 0 6 0 3 1013.6 1013.7 0.0
27/01:00am 9.2 6.6 4.0 70 2.3 NNW 7 11 4 6 1013.4 1013.5 0.0
27/12:30am 9.6 7.0 4.2 69 2.4 N 7 11 4 6 1013.6 1013.7 0.0
27/12:00am 8.8 6.3 4.0 72 2.1 N 6 11 3 6 1013.8 1013.9 0.0
 
Date/Time
EST
Temp
°C
App
Temp
°C
Dew
Point
°C
Rel
Hum
%
Delta-T
°C
Wind Press
QNH
hPa
Press
MSL
hPa
Rain since
9am
mm
Dir  Spd
km/h
Gust
km/h
Spd
kts
Gust
kts
26/11:30pm 7.9 5.9 4.3 78 1.6 ENE 4 7 2 4 1014.0 1014.1 0.0
26/11:00pm 7.0 4.3 3.6 79 1.4 ESE 7 9 4 5 1014.4 1014.4 0.0
26/10:30pm 6.6 4.4 3.6 81 1.3 E 4 7 2 4 1014.6 1014.6 0.0
26/10:00pm 7.1 4.5 3.0 75 1.7 E 6 9 3 5 1014.6 1014.6 0.0
26/09:30pm 8.4 6.5 2.8 68 2.4 SW 2 7 1 4 1014.5 1014.5 0.0
26/09:00pm 9.5 6.3 2.8 63 2.9 SSW 9 11 5 6 1014.6 1014.6 0.0
26/08:30pm 9.9 7.1 3.0 62 3.0 SW 7 9 4 5 1014.7 1014.7 0.0
26/08:00pm 10.1 7.9 3.6 64 2.8 WSW 4 7 2 4 1014.8 1014.8 0.0
26/07:30pm 11.3 8.3 2.3 54 3.9 WNW 7 9 4 5 1014.5 1014.5 0.0
26/07:00pm 12.7 9.0 2.3 49 4.5 W 11 15 6 8 1014.2 1014.3 0.0
26/06:30pm 13.4 8.5 2.3 47 4.9 W 17 28 9 15 1013.9 1014.0 0.0
26/06:00pm 13.7 10.9 2.0 45 5.1 NW 6 13 3 7 1013.8 1013.9 0.0
26/05:30pm 14.4 9.5 2.3 44 5.4 WNW 17 26 9 14 1013.4 1013.5 0.0
26/05:00pm 15.1 10.2 2.3 42 5.7 WNW 17 28 9 15 1013.1 1013.2 0.0
26/04:30pm 16.4 10.9 1.7 37 6.5 WNW 20 37 11 20 1012.8 1012.9 0.0
26/04:00pm 17.5 14.5 1.9 35 7.0 NNW 7 22 4 12 1012.7 1012.8 0.0
26/03:30pm 17.1 14.2 6.3 49 5.3 ENE 11 15 6 8 1012.7 1012.8 0.0
26/03:00pm 17.6 14.6 6.2 47 5.6 ENE 11 15 6 8 1012.7 1012.8 0.0
26/02:30pm 17.6 15.1 4.9 43 6.1 ENE 7 13 4 7 1012.8 1012.9 0.0
26/02:00pm 18.0 15.5 4.6 41 6.4 NNW 7 11 4 6 1012.8 1012.9 0.0

Latest Capital City Observations: Canberra | Sydney | Melbourne | Brisbane | Adelaide | Perth | Hobart | Darwin

Other Formats:

Comma delimited format used in spreadsheet applications
http://www.bom.gov.au/fwo/IDN60901/IDN60901.95761.axf

JavaScript Object Notation format (JSON) in row-major order
http://www.bom.gov.au/fwo/IDN60901/IDN60901.95761.json